Weather at Delaware Municipal Airport

Public forecast

Using degrees Fahrenheit for public forecast. Weather courtesy of forecast.io.

Current aviation weather report (METAR) for Delaware Municipal Airport

Retrieved 2021/01/22 15:53 UTC (2 hours ago):

KDLZ 221553Z AUTO 28010KT 10SM SCT024 OVC038 00/M03 A2997 RMK AO2

Closest aviation forecast (TAF) to Delaware Municipal Airport

Closest forecast is John Glenn Columbus International Airport, 19.8 nm (36.6 km) SSE. Retrieved 2021/01/22 12:30 UTC (5 hours ago):

TAF KCMH 221127Z 2212/2312 28008KT P6SM BKN035 FM221400 30012G18KT P6SM BKN025 FM221900 29012KT P6SM BKN035 FM230200 31009KT P6SM BKN035 FM230800 32007KT P6SM SCT050